Terminal Aerodrome Forecast
Issued by NWS

Home | Current Version | Previous Version | Text Only | Print | Product List | Glossary On
Versions: 1 2 3 4 5 6 7 8 9 10 11 12 13 14 15 16
000
FTUS44 KLZK 272320
TAFHOT
TAF
KHOT 272320Z 2800/2824 21010G15KT P6SM SCT025 BKN050
     FM280100 19008KT P6SM VCSH SCT030 OVC050
     FM280600 19007KT P6SM VCTS SCT025 OVC050CB
      TEMPO 2810/2814 VRB20G40KT 2SM TSRA BR OVC010CB
     FM281400 22009KT P6SM -RA VCTS BKN025 OVC050CB
     FM281800 26007KT P6SM VCSH SCT025 BKN040=

USA.gov is the U.S. government's official web portal to all federal, state and local government web resources and services.